sensor_id;sensor_type;location;lat;lon;timestamp;P1;durP1;ratioP1;P2;durP2;ratioP2
49221;SDS011;35047;37.588;-122.048;2022-07-29T00:00:50;2.47;;;0.60;;
49221;SDS011;35047;37.588;-122.048;2022-07-29T00:03:17;8.55;;;0.60;;
49221;SDS011;35047;37.588;-122.048;2022-07-29T00:05:44;4.10;;;0.80;;
49221;SDS011;35047;37.588;-122.048;2022-07-29T00:08:10;2.20;;;0.70;;
49221;SDS011;35047;37.588;-122.048;2022-07-29T00:10:37;1.23;;;0.50;;
49221;SDS011;35047;37.588;-122.048;2022-07-29T00:13:04;1.00;;;0.60;;
49221;SDS011;35047;37.588;-122.048;2022-07-29T00:15:30;2.05;;;0.65;;
49221;SDS011;35047;37.588;-122.048;2022-07-29T00:17:57;1.10;;;0.50;;
49221;SDS011;35047;37.588;-122.048;2022-07-29T00:20:25;2.40;;;0.55;;
49221;SDS011;35047;37.588;-122.048;2022-07-29T00:22:52;1.77;;;0.70;;
49221;SDS011;35047;37.588;-122.048;2022-07-29T00:25:19;2.13;;;0.50;;
49221;SDS011;35047;37.588;-122.048;2022-07-29T00:27:46;1.42;;;0.50;;
49221;SDS011;35047;37.588;-122.048;2022-07-29T00:30:14;3.60;;;0.47;;
49221;SDS011;35047;37.588;-122.048;2022-07-29T00:32:41;2.80;;;0.68;;
49221;SDS011;35047;37.588;-122.048;2022-07-29T00:35:07;2.92;;;0.40;;
49221;SDS011;35047;37.588;-122.048;2022-07-29T00:37:53;2.03;;;0.60;;
49221;SDS011;35047;37.588;-122.048;2022-07-29T00:40:19;2.05;;;0.60;;
49221;SDS011;35047;37.588;-122.048;2022-07-29T00:42:47;4.55;;;0.90;;
49221;SDS011;35047;37.588;-122.048;2022-07-29T00:45:14;1.88;;;0.60;;
49221;SDS011;35047;37.588;-122.048;2022-07-29T00:47:42;1.88;;;0.60;;
49221;SDS011;35047;37.588;-122.048;2022-07-29T00:52:38;2.47;;;0.40;;
49221;SDS011;35047;37.588;-122.048;2022-07-29T00:55:07;2.28;;;0.75;;
49221;SDS011;35047;37.588;-122.048;2022-07-29T00:57:36;4.25;;;0.50;;
49221;SDS011;35047;37.588;-122.048;2022-07-29T01:00:04;2.85;;;0.65;;
49221;SDS011;35047;37.588;-122.048;2022-07-29T01:02:33;1.48;;;0.40;;
49221;SDS011;35047;37.588;-122.048;2022-07-29T01:05:00;2.80;;;1.15;;
49221;SDS011;35047;37.588;-122.048;2022-07-29T01:07:30;1.38;;;0.45;;
49221;SDS011;35047;37.588;-122.048;2022-07-29T01:09:58;2.65;;;0.47;;
49221;SDS011;35047;37.588;-122.048;2022-07-29T01:12:28;1.83;;;0.65;;
49221;SDS011;35047;37.588;-122.048;2022-07-29T01:14:58;1.60;;;0.40;;
49221;SDS011;35047;37.588;-122.048;2022-07-29T01:26:47;1.45;;;0.47;;
49221;SDS011;35047;37.588;-122.048;2022-07-29T01:29:30;2.42;;;0.30;;
49221;SDS011;35047;37.588;-122.048;2022-07-29T01:32:19;3.65;;;0.50;;
49221;SDS011;35047;37.588;-122.048;2022-07-29T01:35:10;1.23;;;0.65;;
49221;SDS011;35047;37.588;-122.048;2022-07-29T01:37:44;1.95;;;0.50;;
49221;SDS011;35047;37.588;-122.048;2022-07-29T01:42:54;2.30;;;0.50;;
49221;SDS011;35047;37.588;-122.048;2022-07-29T01:53:44;1.27;;;0.30;;
49221;SDS011;35047;37.588;-122.048;2022-07-29T01:56:42;0.55;;;0.30;;
49221;SDS011;35047;37.588;-122.048;2022-07-29T01:59:10;2.20;;;0.88;;
49221;SDS011;35047;37.588;-122.048;2022-07-29T02:01:39;1.20;;;0.43;;
49221;SDS011;35047;37.588;-122.048;2022-07-29T02:04:09;2.70;;;0.65;;
49221;SDS011;35047;37.588;-122.048;2022-07-29T02:06:38;1.13;;;0.40;;
49221;SDS011;35047;37.588;-122.048;2022-07-29T02:09:08;1.38;;;0.40;;
49221;SDS011;35047;37.588;-122.048;2022-07-29T02:11:37;1.85;;;0.40;;
49221;SDS011;35047;37.588;-122.048;2022-07-29T02:14:05;2.03;;;0.40;;
49221;SDS011;35047;37.588;-122.048;2022-07-29T02:16:34;1.55;;;0.40;;
49221;SDS011;35047;37.588;-122.048;2022-07-29T02:19:02;1.90;;;0.50;;
49221;SDS011;35047;37.588;-122.048;2022-07-29T02:21:30;1.42;;;0.40;;
49221;SDS011;35047;37.588;-122.048;2022-07-29T02:23:59;2.13;;;0.40;;
49221;SDS011;35047;37.588;-122.048;2022-07-29T02:26:28;0.68;;;0.32;;
49221;SDS011;35047;37.588;-122.048;2022-07-29T02:28:56;2.30;;;0.40;;
49221;SDS011;35047;37.588;-122.048;2022-07-29T02:31:26;0.85;;;0.25;;
49221;SDS011;35047;37.588;-122.048;2022-07-29T02:33:56;2.17;;;0.40;;
49221;SDS011;35047;37.588;-122.048;2022-07-29T02:36:25;0.50;;;0.30;;
49221;SDS011;35047;37.588;-122.048;2022-07-29T02:38:53;0.57;;;0.22;;
49221;SDS011;35047;37.588;-122.048;2022-07-29T02:41:24;0.75;;;0.30;;
49221;SDS011;35047;37.588;-122.048;2022-07-29T02:43:55;1.42;;;0.35;;
49221;SDS011;35047;37.588;-122.048;2022-07-29T02:46:34;3.33;;;0.50;;
49221;SDS011;35047;37.588;-122.048;2022-07-29T02:51:40;0.93;;;0.30;;
49221;SDS011;35047;37.588;-122.048;2022-07-29T02:54:09;1.67;;;0.40;;
49221;SDS011;35047;37.588;-122.048;2022-07-29T02:56:40;1.80;;;0.50;;
49221;SDS011;35047;37.588;-122.048;2022-07-29T02:59:10;1.08;;;0.38;;
49221;SDS011;35047;37.588;-122.048;2022-07-29T03:01:40;0.80;;;0.20;;
49221;SDS011;35047;37.588;-122.048;2022-07-29T03:04:09;2.08;;;0.47;;
49221;SDS011;35047;37.588;-122.048;2022-07-29T03:06:38;0.30;;;0.17;;
49221;SDS011;35047;37.588;-122.048;2022-07-29T03:09:07;0.70;;;0.20;;
49221;SDS011;35047;37.588;-122.048;2022-07-29T03:11:36;0.57;;;0.20;;
49221;SDS011;35047;37.588;-122.048;2022-07-29T03:14:04;0.40;;;0.20;;
49221;SDS011;35047;37.588;-122.048;2022-07-29T03:16:33;0.43;;;0.22;;
49221;SDS011;35047;37.588;-122.048;2022-07-29T03:19:01;0.50;;;0.15;;
49221;SDS011;35047;37.588;-122.048;2022-07-29T03:21:30;0.22;;;0.20;;
49221;SDS011;35047;37.588;-122.048;2022-07-29T03:23:56;0.30;;;0.20;;
49221;SDS011;35047;37.588;-122.048;2022-07-29T03:26:24;0.95;;;0.20;;
49221;SDS011;35047;37.588;-122.048;2022-07-29T03:28:51;0.55;;;0.20;;
49221;SDS011;35047;37.588;-122.048;2022-07-29T03:31:18;0.75;;;0.20;;
49221;SDS011;35047;37.588;-122.048;2022-07-29T03:33:45;1.30;;;0.20;;
49221;SDS011;35047;37.588;-122.048;2022-07-29T03:36:11;0.10;;;0.10;;
49221;SDS011;35047;37.588;-122.048;2022-07-29T03:38:38;1.08;;;0.20;;
49221;SDS011;35047;37.588;-122.048;2022-07-29T03:41:09;0.85;;;0.20;;
49221;SDS011;35047;37.588;-122.048;2022-07-29T03:43:40;1.75;;;0.20;;
49221;SDS011;35047;37.588;-122.048;2022-07-29T03:46:08;0.73;;;0.17;;
49221;SDS011;35047;37.588;-122.048;2022-07-29T03:48:36;3.50;;;0.20;;
49221;SDS011;35047;37.588;-122.048;2022-07-29T03:51:07;0.75;;;0.10;;
49221;SDS011;35047;37.588;-122.048;2022-07-29T03:56:01;0.52;;;0.20;;
49221;SDS011;35047;37.588;-122.048;2022-07-29T03:58:30;0.30;;;0.10;;
49221;SDS011;35047;37.588;-122.048;2022-07-29T04:00:58;0.43;;;0.20;;
49221;SDS011;35047;37.588;-122.048;2022-07-29T04:03:25;0.45;;;0.20;;
49221;SDS011;35047;37.588;-122.048;2022-07-29T04:06:01;0.40;;;0.40;;
49221;SDS011;35047;37.588;-122.048;2022-07-29T04:08:32;0.38;;;0.10;;
49221;SDS011;35047;37.588;-122.048;2022-07-29T04:11:00;0.30;;;0.17;;
49221;SDS011;35047;37.588;-122.048;2022-07-29T04:13:28;0.10;;;0.10;;
49221;SDS011;35047;37.588;-122.048;2022-07-29T04:15:54;0.35;;;0.10;;
49221;SDS011;35047;37.588;-122.048;2022-07-29T04:18:21;0.10;;;0.10;;
49221;SDS011;35047;37.588;-122.048;2022-07-29T04:20:48;0.98;;;0.20;;
49221;SDS011;35047;37.588;-122.048;2022-07-29T04:23:15;0.10;;;0.10;;
49221;SDS011;35047;37.588;-122.048;2022-07-29T04:25:42;0.20;;;0.10;;
49221;SDS011;35047;37.588;-122.048;2022-07-29T04:30:36;0.20;;;0.20;;
49221;SDS011;35047;37.588;-122.048;2022-07-29T04:33:05;0.13;;;0.10;;
49221;SDS011;35047;37.588;-122.048;2022-07-29T04:35:36;0.15;;;0.15;;
49221;SDS011;35047;37.588;-122.048;2022-07-29T04:38:04;0.10;;;0.10;;
49221;SDS011;35047;37.588;-122.048;2022-07-29T04:40:32;0.32;;;0.10;;
49221;SDS011;35047;37.588;-122.048;2022-07-29T04:42:59;0.10;;;0.00;;
49221;SDS011;35047;37.588;-122.048;2022-07-29T04:45:27;0.17;;;0.10;;
49221;SDS011;35047;37.588;-122.048;2022-07-29T04:47:54;0.75;;;0.22;;
49221;SDS011;35047;37.588;-122.048;2022-07-29T04:50:21;0.43;;;0.20;;
49221;SDS011;35047;37.588;-122.048;2022-07-29T04:52:48;0.98;;;0.10;;
49221;SDS011;35047;37.588;-122.048;2022-07-29T04:55:15;0.30;;;0.10;;
49221;SDS011;35047;37.588;-122.048;2022-07-29T04:57:42;0.15;;;0.10;;
49221;SDS011;35047;37.588;-122.048;2022-07-29T05:00:09;0.10;;;0.10;;
49221;SDS011;35047;37.588;-122.048;2022-07-29T05:02:36;1.45;;;0.13;;
49221;SDS011;35047;37.588;-122.048;2022-07-29T05:05:03;0.20;;;0.10;;
49221;SDS011;35047;37.588;-122.048;2022-07-29T05:07:29;0.65;;;0.10;;
49221;SDS011;35047;37.588;-122.048;2022-07-29T05:09:56;0.38;;;0.10;;
49221;SDS011;35047;37.588;-122.048;2022-07-29T05:12:23;1.48;;;0.20;;
49221;SDS011;35047;37.588;-122.048;2022-07-29T05:14:50;0.30;;;0.20;;
49221;SDS011;35047;37.588;-122.048;2022-07-29T05:17:17;0.90;;;0.10;;
49221;SDS011;35047;37.588;-122.048;2022-07-29T05:19:44;0.10;;;0.10;;
49221;SDS011;35047;37.588;-122.048;2022-07-29T05:22:11;1.23;;;0.03;;
49221;SDS011;35047;37.588;-122.048;2022-07-29T05:24:38;0.30;;;0.10;;
49221;SDS011;35047;37.588;-122.048;2022-07-29T05:27:06;0.10;;;0.10;;
49221;SDS011;35047;37.588;-122.048;2022-07-29T05:29:32;0.15;;;0.15;;
49221;SDS011;35047;37.588;-122.048;2022-07-29T05:32:00;0.10;;;0.00;;
49221;SDS011;35047;37.588;-122.048;2022-07-29T05:34:27;0.40;;;0.20;;
49221;SDS011;35047;37.588;-122.048;2022-07-29T05:36:54;0.20;;;0.10;;
49221;SDS011;35047;37.588;-122.048;2022-07-29T05:39:20;0.10;;;0.10;;
49221;SDS011;35047;37.588;-122.048;2022-07-29T05:41:47;0.10;;;0.10;;
49221;SDS011;35047;37.588;-122.048;2022-07-29T05:44:13;0.10;;;0.10;;
49221;SDS011;35047;37.588;-122.048;2022-07-29T05:46:41;0.20;;;0.10;;
49221;SDS011;35047;37.588;-122.048;2022-07-29T05:49:07;0.20;;;0.10;;
49221;SDS011;35047;37.588;-122.048;2022-07-29T05:51:34;0.10;;;0.10;;
49221;SDS011;35047;37.588;-122.048;2022-07-29T05:54:02;0.68;;;0.10;;
49221;SDS011;35047;37.588;-122.048;2022-07-29T05:56:28;1.35;;;0.50;;
49221;SDS011;35047;37.588;-122.048;2022-07-29T05:58:55;0.10;;;0.10;;
49221;SDS011;35047;37.588;-122.048;2022-07-29T06:01:22;0.63;;;0.20;;
49221;SDS011;35047;37.588;-122.048;2022-07-29T06:03:49;1.55;;;0.43;;
49221;SDS011;35047;37.588;-122.048;2022-07-29T06:06:16;0.55;;;0.08;;
49221;SDS011;35047;37.588;-122.048;2022-07-29T06:08:43;0.25;;;0.00;;
49221;SDS011;35047;37.588;-122.048;2022-07-29T06:11:09;0.10;;;0.05;;
49221;SDS011;35047;37.588;-122.048;2022-07-29T06:13:36;0.90;;;0.10;;
49221;SDS011;35047;37.588;-122.048;2022-07-29T06:16:03;0.10;;;0.10;;
49221;SDS011;35047;37.588;-122.048;2022-07-29T06:20:57;0.20;;;0.10;;
49221;SDS011;35047;37.588;-122.048;2022-07-29T06:23:25;0.30;;;0.10;;
49221;SDS011;35047;37.588;-122.048;2022-07-29T06:25:52;0.08;;;0.08;;
49221;SDS011;35047;37.588;-122.048;2022-07-29T06:28:19;0.03;;;0.00;;
49221;SDS011;35047;37.588;-122.048;2022-07-29T06:30:45;0.50;;;0.07;;
49221;SDS011;35047;37.588;-122.048;2022-07-29T06:33:16;0.32;;;0.10;;
49221;SDS011;35047;37.588;-122.048;2022-07-29T06:35:43;0.28;;;0.15;;
49221;SDS011;35047;37.588;-122.048;2022-07-29T06:38:12;0.10;;;0.10;;
49221;SDS011;35047;37.588;-122.048;2022-07-29T06:40:42;0.20;;;0.20;;
49221;SDS011;35047;37.588;-122.048;2022-07-29T06:43:27;0.43;;;0.10;;
49221;SDS011;35047;37.588;-122.048;2022-07-29T06:46:02;0.10;;;0.10;;
49221;SDS011;35047;37.588;-122.048;2022-07-29T06:48:31;0.85;;;0.20;;
49221;SDS011;35047;37.588;-122.048;2022-07-29T06:53:25;3.08;;;0.13;;
49221;SDS011;35047;37.588;-122.048;2022-07-29T06:55:53;0.10;;;0.10;;
49221;SDS011;35047;37.588;-122.048;2022-07-29T06:58:20;0.10;;;0.10;;
49221;SDS011;35047;37.588;-122.048;2022-07-29T07:00:47;0.57;;;0.20;;
49221;SDS011;35047;37.588;-122.048;2022-07-29T07:05:41;0.32;;;0.13;;
49221;SDS011;35047;37.588;-122.048;2022-07-29T07:08:08;0.65;;;0.28;;
49221;SDS011;35047;37.588;-122.048;2022-07-29T07:13:03;0.32;;;0.20;;
49221;SDS011;35047;37.588;-122.048;2022-07-29T07:15:31;0.30;;;0.20;;
49221;SDS011;35047;37.588;-122.048;2022-07-29T07:17:58;0.30;;;0.20;;
49221;SDS011;35047;37.588;-122.048;2022-07-29T07:20:25;0.20;;;0.20;;
49221;SDS011;35047;37.588;-122.048;2022-07-29T07:25:18;0.25;;;0.22;;
49221;SDS011;35047;37.588;-122.048;2022-07-29T07:27:45;0.52;;;0.20;;
49221;SDS011;35047;37.588;-122.048;2022-07-29T07:30:12;0.30;;;0.10;;
49221;SDS011;35047;37.588;-122.048;2022-07-29T07:32:40;0.20;;;0.20;;
49221;SDS011;35047;37.588;-122.048;2022-07-29T07:35:07;0.77;;;0.40;;
49221;SDS011;35047;37.588;-122.048;2022-07-29T07:37:35;0.20;;;0.20;;
49221;SDS011;35047;37.588;-122.048;2022-07-29T07:40:02;0.43;;;0.20;;
49221;SDS011;35047;37.588;-122.048;2022-07-29T07:42:30;1.65;;;0.30;;
49221;SDS011;35047;37.588;-122.048;2022-07-29T07:44:57;0.65;;;0.20;;
49221;SDS011;35047;37.588;-122.048;2022-07-29T07:47:24;0.23;;;0.20;;
49221;SDS011;35047;37.588;-122.048;2022-07-29T07:50:10;0.24;;;0.13;;
49221;SDS011;35047;37.588;-122.048;2022-07-29T07:52:51;0.20;;;0.20;;
49221;SDS011;35047;37.588;-122.048;2022-07-29T07:55:20;0.25;;;0.10;;
49221;SDS011;35047;37.588;-122.048;2022-07-29T07:57:47;1.88;;;0.22;;
49221;SDS011;35047;37.588;-122.048;2022-07-29T08:00:14;0.10;;;0.10;;
49221;SDS011;35047;37.588;-122.048;2022-07-29T08:02:42;0.10;;;0.10;;
49221;SDS011;35047;37.588;-122.048;2022-07-29T08:05:10;0.98;;;0.10;;
49221;SDS011;35047;37.588;-122.048;2022-07-29T08:07:42;0.17;;;0.13;;
49221;SDS011;35047;37.588;-122.048;2022-07-29T08:10:10;0.13;;;0.05;;
49221;SDS011;35047;37.588;-122.048;2022-07-29T08:12:38;0.10;;;0.10;;
49221;SDS011;35047;37.588;-122.048;2022-07-29T08:15:06;0.00;;;0.00;;
49221;SDS011;35047;37.588;-122.048;2022-07-29T08:17:33;0.00;;;0.00;;
49221;SDS011;35047;37.588;-122.048;2022-07-29T08:20:00;0.00;;;0.00;;
49221;SDS011;35047;37.588;-122.048;2022-07-29T08:22:27;0.32;;;0.10;;
49221;SDS011;35047;37.588;-122.048;2022-07-29T08:24:54;0.10;;;0.00;;
49221;SDS011;35047;37.588;-122.048;2022-07-29T08:27:21;0.40;;;0.08;;
49221;SDS011;35047;37.588;-122.048;2022-07-29T08:29:48;0.93;;;0.10;;
49221;SDS011;35047;37.588;-122.048;2022-07-29T08:32:15;0.00;;;0.00;;
49221;SDS011;35047;37.588;-122.048;2022-07-29T08:34:41;0.45;;;0.00;;
49221;SDS011;35047;37.588;-122.048;2022-07-29T08:37:11;0.00;;;0.00;;
49221;SDS011;35047;37.588;-122.048;2022-07-29T08:39:38;0.13;;;0.00;;
49221;SDS011;35047;37.588;-122.048;2022-07-29T08:42:06;0.00;;;0.00;;
49221;SDS011;35047;37.588;-122.048;2022-07-29T08:44:33;0.20;;;0.00;;
49221;SDS011;35047;37.588;-122.048;2022-07-29T08:47:00;0.00;;;0.00;;
49221;SDS011;35047;37.588;-122.048;2022-07-29T08:49:27;0.00;;;0.00;;
49221;SDS011;35047;37.588;-122.048;2022-07-29T08:51:54;0.25;;;0.10;;
49221;SDS011;35047;37.588;-122.048;2022-07-29T08:54:22;0.10;;;0.00;;
49221;SDS011;35047;37.588;-122.048;2022-07-29T08:56:49;2.30;;;0.80;;
49221;SDS011;35047;37.588;-122.048;2022-07-29T09:01:47;0.00;;;0.00;;
49221;SDS011;35047;37.588;-122.048;2022-07-29T09:04:15;0.88;;;0.03;;
49221;SDS011;35047;37.588;-122.048;2022-07-29T09:06:49;0.00;;;0.00;;
49221;SDS011;35047;37.588;-122.048;2022-07-29T09:09:17;0.22;;;0.10;;
49221;SDS011;35047;37.588;-122.048;2022-07-29T09:11:44;0.08;;;0.00;;
49221;SDS011;35047;37.588;-122.048;2022-07-29T09:14:11;0.10;;;0.00;;
49221;SDS011;35047;37.588;-122.048;2022-07-29T09:16:45;0.00;;;0.00;;
49221;SDS011;35047;37.588;-122.048;2022-07-29T09:19:20;0.10;;;0.00;;
49221;SDS011;35047;37.588;-122.048;2022-07-29T09:21:48;0.25;;;0.10;;
49221;SDS011;35047;37.588;-122.048;2022-07-29T09:24:23;0.00;;;0.00;;
49221;SDS011;35047;37.588;-122.048;2022-07-29T09:26:51;0.00;;;0.00;;
49221;SDS011;35047;37.588;-122.048;2022-07-29T09:29:22;0.08;;;0.00;;
49221;SDS011;35047;37.588;-122.048;2022-07-29T09:31:53;0.00;;;0.00;;
49221;SDS011;35047;37.588;-122.048;2022-07-29T09:36:56;0.00;;;0.00;;
49221;SDS011;35047;37.588;-122.048;2022-07-29T09:39:27;0.03;;;0.00;;
49221;SDS011;35047;37.588;-122.048;2022-07-29T09:41:55;0.00;;;0.00;;
49221;SDS011;35047;37.588;-122.048;2022-07-29T09:44:24;0.00;;;0.00;;
49221;SDS011;35047;37.588;-122.048;2022-07-29T09:47:02;0.00;;;0.00;;
49221;SDS011;35047;37.588;-122.048;2022-07-29T09:49:33;0.00;;;0.00;;
49221;SDS011;35047;37.588;-122.048;2022-07-29T09:52:06;0.00;;;0.00;;
49221;SDS011;35047;37.588;-122.048;2022-07-29T09:54:34;0.00;;;0.00;;
49221;SDS011;35047;37.588;-122.048;2022-07-29T09:57:22;0.55;;;0.00;;
49221;SDS011;35047;37.588;-122.048;2022-07-29T09:59:58;0.10;;;0.00;;
49221;SDS011;35047;37.588;-122.048;2022-07-29T10:02:31;0.22;;;0.00;;
49221;SDS011;35047;37.588;-122.048;2022-07-29T10:05:00;0.00;;;0.00;;
49221;SDS011;35047;37.588;-122.048;2022-07-29T10:07:44;0.08;;;0.00;;
49221;SDS011;35047;37.588;-122.048;2022-07-29T10:10:34;0.00;;;0.00;;
49221;SDS011;35047;37.588;-122.048;2022-07-29T10:13:01;0.00;;;0.00;;
49221;SDS011;35047;37.588;-122.048;2022-07-29T10:15:34;0.05;;;0.00;;
49221;SDS011;35047;37.588;-122.048;2022-07-29T10:18:04;0.30;;;0.10;;
49221;SDS011;35047;37.588;-122.048;2022-07-29T10:20:31;0.20;;;0.00;;
49221;SDS011;35047;37.588;-122.048;2022-07-29T10:22:58;0.00;;;0.00;;
49221;SDS011;35047;37.588;-122.048;2022-07-29T10:25:25;0.10;;;0.10;;
49221;SDS011;35047;37.588;-122.048;2022-07-29T10:27:53;0.00;;;0.00;;
49221;SDS011;35047;37.588;-122.048;2022-07-29T10:30:21;0.00;;;0.00;;
49221;SDS011;35047;37.588;-122.048;2022-07-29T10:35:56;0.00;;;0.00;;
49221;SDS011;35047;37.588;-122.048;2022-07-29T10:38:42;0.17;;;0.00;;
49221;SDS011;35047;37.588;-122.048;2022-07-29T10:44:20;1.88;;;0.00;;
49221;SDS011;35047;37.588;-122.048;2022-07-29T10:46:50;2.17;;;0.00;;
49221;SDS011;35047;37.588;-122.048;2022-07-29T10:49:17;0.00;;;0.00;;
49221;SDS011;35047;37.588;-122.048;2022-07-29T10:51:53;0.38;;;0.00;;
49221;SDS011;35047;37.588;-122.048;2022-07-29T10:57:13;0.10;;;0.00;;
49221;SDS011;35047;37.588;-122.048;2022-07-29T11:05:06;0.10;;;0.05;;
49221;SDS011;35047;37.588;-122.048;2022-07-29T11:07:38;0.00;;;0.00;;
49221;SDS011;35047;37.588;-122.048;2022-07-29T11:10:26;0.00;;;0.00;;
49221;SDS011;35047;37.588;-122.048;2022-07-29T11:12:52;0.00;;;0.00;;
49221;SDS011;35047;37.588;-122.048;2022-07-29T11:20:35;0.30;;;0.00;;
49221;SDS011;35047;37.588;-122.048;2022-07-29T11:34:16;0.38;;;0.00;;
49221;SDS011;35047;37.588;-122.048;2022-07-29T11:39:35;0.05;;;0.00;;
49221;SDS011;35047;37.588;-122.048;2022-07-29T11:47:25;0.10;;;0.00;;
49221;SDS011;35047;37.588;-122.048;2022-07-29T11:49:53;0.05;;;0.00;;
49221;SDS011;35047;37.588;-122.048;2022-07-29T11:52:36;0.28;;;0.00;;
49221;SDS011;35047;37.588;-122.048;2022-07-29T11:55:15;0.00;;;0.00;;
49221;SDS011;35047;37.588;-122.048;2022-07-29T12:00:30;0.00;;;0.00;;
49221;SDS011;35047;37.588;-122.048;2022-07-29T12:03:08;0.00;;;0.00;;
49221;SDS011;35047;37.588;-122.048;2022-07-29T12:05:43;0.00;;;0.00;;
49221;SDS011;35047;37.588;-122.048;2022-07-29T12:08:21;0.25;;;0.00;;
49221;SDS011;35047;37.588;-122.048;2022-07-29T12:10:51;0.00;;;0.00;;
49221;SDS011;35047;37.588;-122.048;2022-07-29T12:13:19;0.00;;;0.00;;
49221;SDS011;35047;37.588;-122.048;2022-07-29T12:15:53;1.85;;;0.00;;
49221;SDS011;35047;37.588;-122.048;2022-07-29T12:18:22;0.00;;;0.00;;
49221;SDS011;35047;37.588;-122.048;2022-07-29T12:20:49;0.00;;;0.00;;
49221;SDS011;35047;37.588;-122.048;2022-07-29T12:23:24;0.05;;;0.00;;
49221;SDS011;35047;37.588;-122.048;2022-07-29T12:25:50;0.00;;;0.00;;
49221;SDS011;35047;37.588;-122.048;2022-07-29T12:28:17;2.20;;;0.00;;
49221;SDS011;35047;37.588;-122.048;2022-07-29T12:30:47;0.00;;;0.00;;
49221;SDS011;35047;37.588;-122.048;2022-07-29T12:33:19;0.30;;;0.00;;
49221;SDS011;35047;37.588;-122.048;2022-07-29T12:35:55;0.00;;;0.00;;
49221;SDS011;35047;37.588;-122.048;2022-07-29T12:38:25;0.05;;;0.00;;
49221;SDS011;35047;37.588;-122.048;2022-07-29T12:40:53;1.55;;;0.00;;
49221;SDS011;35047;37.588;-122.048;2022-07-29T12:43:21;0.03;;;0.00;;
49221;SDS011;35047;37.588;-122.048;2022-07-29T12:45:50;0.40;;;0.00;;
49221;SDS011;35047;37.588;-122.048;2022-07-29T12:48:37;0.10;;;0.08;;
49221;SDS011;35047;37.588;-122.048;2022-07-29T12:51:05;0.25;;;0.00;;
49221;SDS011;35047;37.588;-122.048;2022-07-29T12:53:35;0.80;;;0.00;;
49221;SDS011;35047;37.588;-122.048;2022-07-29T12:56:03;0.47;;;0.00;;
49221;SDS011;35047;37.588;-122.048;2022-07-29T12:58:32;0.08;;;0.00;;
49221;SDS011;35047;37.588;-122.048;2022-07-29T13:01:10;0.00;;;0.00;;
49221;SDS011;35047;37.588;-122.048;2022-07-29T13:03:43;0.00;;;0.00;;
49221;SDS011;35047;37.588;-122.048;2022-07-29T13:06:27;0.43;;;0.00;;
49221;SDS011;35047;37.588;-122.048;2022-07-29T13:11:34;0.00;;;0.00;;
49221;SDS011;35047;37.588;-122.048;2022-07-29T13:14:03;0.00;;;0.00;;
49221;SDS011;35047;37.588;-122.048;2022-07-29T13:16:31;0.20;;;0.00;;
49221;SDS011;35047;37.588;-122.048;2022-07-29T13:19:04;0.00;;;0.00;;
49221;SDS011;35047;37.588;-122.048;2022-07-29T13:21:37;1.83;;;0.03;;
49221;SDS011;35047;37.588;-122.048;2022-07-29T13:24:07;0.08;;;0.08;;
49221;SDS011;35047;37.588;-122.048;2022-07-29T13:26:39;0.60;;;0.10;;
49221;SDS011;35047;37.588;-122.048;2022-07-29T13:29:06;0.00;;;0.00;;
49221;SDS011;35047;37.588;-122.048;2022-07-29T13:31:32;0.00;;;0.00;;
49221;SDS011;35047;37.588;-122.048;2022-07-29T13:34:00;0.00;;;0.00;;
49221;SDS011;35047;37.588;-122.048;2022-07-29T13:36:26;0.00;;;0.00;;
49221;SDS011;35047;37.588;-122.048;2022-07-29T13:41:20;0.15;;;0.00;;
49221;SDS011;35047;37.588;-122.048;2022-07-29T13:43:46;0.00;;;0.00;;
49221;SDS011;35047;37.588;-122.048;2022-07-29T13:46:13;0.00;;;0.00;;
49221;SDS011;35047;37.588;-122.048;2022-07-29T13:48:41;0.00;;;0.00;;
49221;SDS011;35047;37.588;-122.048;2022-07-29T13:51:07;0.00;;;0.00;;
49221;SDS011;35047;37.588;-122.048;2022-07-29T13:53:34;0.00;;;0.00;;
49221;SDS011;35047;37.588;-122.048;2022-07-29T13:56:00;0.35;;;0.00;;
49221;SDS011;35047;37.588;-122.048;2022-07-29T13:58:31;0.00;;;0.00;;
49221;SDS011;35047;37.588;-122.048;2022-07-29T14:00:58;0.10;;;0.00;;
49221;SDS011;35047;37.588;-122.048;2022-07-29T14:03:26;0.00;;;0.00;;
49221;SDS011;35047;37.588;-122.048;2022-07-29T14:05:53;0.00;;;0.00;;
49221;SDS011;35047;37.588;-122.048;2022-07-29T14:08:19;0.17;;;0.00;;
49221;SDS011;35047;37.588;-122.048;2022-07-29T14:10:47;0.00;;;0.00;;
49221;SDS011;35047;37.588;-122.048;2022-07-29T14:13:14;0.00;;;0.00;;
49221;SDS011;35047;37.588;-122.048;2022-07-29T14:15:41;0.47;;;0.00;;
49221;SDS011;35047;37.588;-122.048;2022-07-29T14:18:09;0.00;;;0.00;;
49221;SDS011;35047;37.588;-122.048;2022-07-29T14:20:35;0.00;;;0.00;;
49221;SDS011;35047;37.588;-122.048;2022-07-29T14:23:02;0.43;;;0.00;;
49221;SDS011;35047;37.588;-122.048;2022-07-29T14:25:29;0.00;;;0.00;;
49221;SDS011;35047;37.588;-122.048;2022-07-29T14:27:55;0.00;;;0.00;;
49221;SDS011;35047;37.588;-122.048;2022-07-29T14:30:22;0.00;;;0.00;;
49221;SDS011;35047;37.588;-122.048;2022-07-29T14:35:15;0.85;;;0.00;;
49221;SDS011;35047;37.588;-122.048;2022-07-29T14:37:42;0.00;;;0.00;;
49221;SDS011;35047;37.588;-122.048;2022-07-29T14:40:09;0.10;;;0.00;;
49221;SDS011;35047;37.588;-122.048;2022-07-29T14:42:36;0.98;;;0.10;;
49221;SDS011;35047;37.588;-122.048;2022-07-29T14:45:06;0.00;;;0.00;;
49221;SDS011;35047;37.588;-122.048;2022-07-29T14:47:34;0.00;;;0.00;;
49221;SDS011;35047;37.588;-122.048;2022-07-29T14:50:00;0.10;;;0.00;;
49221;SDS011;35047;37.588;-122.048;2022-07-29T14:54:54;0.10;;;0.00;;
49221;SDS011;35047;37.588;-122.048;2022-07-29T14:57:20;0.00;;;0.00;;
49221;SDS011;35047;37.588;-122.048;2022-07-29T14:59:47;0.00;;;0.00;;
49221;SDS011;35047;37.588;-122.048;2022-07-29T15:02:14;0.43;;;0.00;;
49221;SDS011;35047;37.588;-122.048;2022-07-29T15:04:40;0.00;;;0.00;;
49221;SDS011;35047;37.588;-122.048;2022-07-29T15:07:09;0.08;;;0.00;;
49221;SDS011;35047;37.588;-122.048;2022-07-29T15:09:37;0.00;;;0.00;;
49221;SDS011;35047;37.588;-122.048;2022-07-29T15:12:03;0.00;;;0.00;;
49221;SDS011;35047;37.588;-122.048;2022-07-29T15:14:30;0.00;;;0.00;;
49221;SDS011;35047;37.588;-122.048;2022-07-29T15:16:58;0.00;;;0.00;;
49221;SDS011;35047;37.588;-122.048;2022-07-29T15:19:24;0.10;;;0.00;;
49221;SDS011;35047;37.588;-122.048;2022-07-29T15:21:51;0.00;;;0.00;;
49221;SDS011;35047;37.588;-122.048;2022-07-29T15:24:19;0.00;;;0.00;;
49221;SDS011;35047;37.588;-122.048;2022-07-29T15:26:45;0.00;;;0.00;;
49221;SDS011;35047;37.588;-122.048;2022-07-29T15:29:13;0.13;;;0.00;;
49221;SDS011;35047;37.588;-122.048;2022-07-29T15:31:40;0.00;;;0.00;;
49221;SDS011;35047;37.588;-122.048;2022-07-29T15:36:33;0.10;;;0.00;;
49221;SDS011;35047;37.588;-122.048;2022-07-29T15:39:01;0.10;;;0.00;;
49221;SDS011;35047;37.588;-122.048;2022-07-29T15:41:27;0.00;;;0.00;;
49221;SDS011;35047;37.588;-122.048;2022-07-29T15:43:54;0.00;;;0.00;;
49221;SDS011;35047;37.588;-122.048;2022-07-29T15:46:21;0.20;;;0.20;;
49221;SDS011;35047;37.588;-122.048;2022-07-29T15:49:06;0.00;;;0.00;;
49221;SDS011;35047;37.588;-122.048;2022-07-29T15:51:33;0.10;;;0.03;;
49221;SDS011;35047;37.588;-122.048;2022-07-29T15:54:02;0.00;;;0.00;;
49221;SDS011;35047;37.588;-122.048;2022-07-29T15:56:29;4.30;;;0.10;;
49221;SDS011;35047;37.588;-122.048;2022-07-29T15:58:57;0.00;;;0.00;;
49221;SDS011;35047;37.588;-122.048;2022-07-29T16:01:25;4.00;;;0.00;;